Terminal Aerodrome Forecast
Issued by NWS Sioux Falls, SD

Home | Current Version | Previous Version | Graphics & Text | Print | Product List | Glossary On
Versions: 1 2 3 4 5 6 7 8 9 10 11 12 13 14
000
FTUS43 KFSD 280537
TAFHON
TAF
KHON 280537Z 2806/2906 16014G21KT P6SM SCT025 OVC100
      TEMPO 2806/2808 VRB20G40KT 4SM TSRA OVC025CB
     FM280800 11012KT P6SM -RA OVC080
     FM281000 20010KT P6SM SCT150
     FM281300 29015G22KT P6SM SCT022 SCT150
     FM290200 28010KT P6SM SKC=

USA.gov is the U.S. government's official web portal to all federal, state and local government web resources and services.